Time;durP1;ratioP1;P1;durP2;ratioP2;P2;SDS_P1;SDS_P2;PMS_P1;PMS_P2;Temp;Humidity;BMP_temperature;BMP_pressure;BME280_temperature;BME280_humidity;BME280_pressure;Samples;Min_cycle;Max_cycle;Signal;HPM_P1;HPM_P2
2021/01/23 00:02:08;;;;;;;49.05;21.40;;;0.90;99.90;;;;;;4980706;28;20118;-78
2021/01/23 00:04:35;;;;;;;56.67;22.30;;;0.90;99.90;;;;;;4987322;28;20133;-78
2021/01/23 00:07:02;;;;;;;48.50;21.08;;;0.90;99.90;;;;;;4980609;28;20085;-78
2021/01/23 00:09:28;;;;;;;49.22;21.17;;;0.80;99.90;;;;;;4984947;28;20054;-78
2021/01/23 00:11:54;;;;;;;53.40;21.63;;;0.80;99.90;;;;;;4981972;28;20073;-77
2021/01/23 00:14:21;;;;;;;50.17;21.88;;;0.80;99.90;;;;;;4987799;28;20136;-78
2021/01/23 00:16:47;;;;;;;48.03;20.55;;;0.80;99.90;;;;;;4987035;28;20118;-78
2021/01/23 00:19:14;;;;;;;49.17;21.17;;;0.70;99.90;;;;;;4982653;28;20057;-78
2021/01/23 00:21:40;;;;;;;55.78;22.55;;;0.70;99.90;;;;;;4978796;28;20050;-79
2021/01/23 00:24:06;;;;;;;49.05;22.80;;;0.70;99.90;;;;;;4983239;28;20050;-79
2021/01/23 00:26:33;;;;;;;54.58;22.40;;;0.70;99.90;;;;;;4984652;28;20129;-78
2021/01/23 00:28:59;;;;;;;43.95;21.27;;;0.70;99.90;;;;;;4988155;28;20064;-78
2021/01/23 00:31:25;;;;;;;49.90;22.17;;;0.70;99.90;;;;;;4980941;28;20599;-78
2021/01/23 00:33:51;;;;;;;53.80;21.17;;;0.60;99.90;;;;;;4985623;28;20057;-78
2021/01/23 00:36:18;;;;;;;51.13;21.90;;;0.60;99.90;;;;;;4973419;28;20454;-79
2021/01/23 00:38:44;;;;;;;52.70;23.23;;;0.60;99.90;;;;;;4987929;28;20050;-79
2021/01/23 00:41:11;;;;;;;50.17;21.67;;;0.60;99.90;;;;;;4983103;28;20468;-79
2021/01/23 00:43:37;;;;;;;54.53;22.30;;;0.60;99.90;;;;;;4984328;28;20058;-78
2021/01/23 00:46:04;;;;;;;49.38;21.83;;;0.60;99.90;;;;;;4985708;28;20141;-78
2021/01/23 00:48:30;;;;;;;52.80;21.25;;;0.60;99.90;;;;;;4999204;28;21051;-78
2021/01/23 00:50:56;;;;;;;55.70;22.42;;;0.60;99.90;;;;;;4985464;28;20137;-78
2021/01/23 00:53:22;;;;;;;55.00;22.52;;;0.60;99.90;;;;;;4985819;28;20129;-78
2021/01/23 00:55:48;;;;;;;54.20;22.40;;;0.60;99.90;;;;;;4982596;28;20927;-78
2021/01/23 00:58:15;;;;;;;51.05;22.50;;;0.60;99.90;;;;;;4982175;28;20663;-79
2021/01/23 01:00:41;;;;;;;52.33;21.70;;;0.60;99.90;;;;;;4985358;28;20058;-79
2021/01/23 01:03:07;;;;;;;54.47;23.98;;;0.60;99.90;;;;;;4981664;28;20061;-78
2021/01/23 01:05:33;;;;;;;57.80;23.75;;;0.60;99.90;;;;;;4985326;28;20650;-78
2021/01/23 01:07:59;;;;;;;53.65;22.58;;;0.60;99.90;;;;;;4979706;28;20051;-79
2021/01/23 01:10:26;;;;;;;59.67;22.90;;;0.60;99.90;;;;;;4984504;28;20137;-79
2021/01/23 01:13:00;;;;;;;53.67;22.88;;;0.60;99.90;;;;;;4979377;28;20529;-78
2021/01/23 01:15:26;;;;;;;55.70;23.85;;;0.60;99.90;;;;;;4981431;28;20069;-78
2021/01/23 01:17:52;;;;;;;56.92;23.48;;;0.60;99.90;;;;;;4980309;28;21487;-78
2021/01/23 01:20:18;;;;;;;48.58;22.10;;;0.60;99.90;;;;;;4985971;28;20044;-78
2021/01/23 01:22:45;;;;;;;48.08;23.25;;;0.70;99.90;;;;;;4982086;28;20453;-79
2021/01/23 01:25:11;;;;;;;50.03;23.35;;;0.60;99.90;;;;;;4979752;28;20050;-78
2021/01/23 01:27:37;;;;;;;57.28;24.25;;;0.60;99.90;;;;;;4983898;28;20054;-79
2021/01/23 01:30:04;;;;;;;59.90;22.52;;;0.60;99.90;;;;;;4981928;28;20421;-78
2021/01/23 01:32:31;;;;;;;50.10;22.70;;;0.60;99.90;;;;;;4984902;28;20052;-78
2021/01/23 01:34:57;;;;;;;51.92;22.98;;;0.60;99.90;;;;;;4982559;28;20425;-78
2021/01/23 01:37:23;;;;;;;47.00;23.73;;;0.60;99.90;;;;;;4981313;28;20513;-79
2021/01/23 01:39:50;;;;;;;55.03;24.48;;;0.60;99.90;;;;;;4986778;28;20053;-79
2021/01/23 01:42:16;;;;;;;54.75;26.25;;;0.60;99.90;;;;;;4976549;28;20085;-78
2021/01/23 01:44:42;;;;;;;60.15;26.15;;;0.70;99.90;;;;;;4980817;28;20145;-78
2021/01/23 01:47:09;;;;;;;55.22;24.33;;;0.70;99.90;;;;;;4982789;28;20061;-78
2021/01/23 01:49:36;;;;;;;48.78;24.52;;;0.70;99.90;;;;;;4986571;28;20052;-78
2021/01/23 01:52:03;;;;;;;51.10;24.63;;;0.70;99.90;;;;;;4982341;28;20157;-78
2021/01/23 01:54:30;;;;;;;53.28;25.02;;;0.70;99.90;;;;;;4982291;28;20082;-78
2021/01/23 01:56:56;;;;;;;64.18;25.98;;;0.80;99.90;;;;;;4985093;28;20085;-78
2021/01/23 01:59:23;;;;;;;57.05;25.35;;;0.70;99.90;;;;;;4984720;28;20050;-78
2021/01/23 02:02:02;;;;;;;46.58;23.73;;;0.80;99.90;;;;;;4974166;28;20073;-78
2021/01/23 02:04:45;;;;;;;50.38;23.05;;;0.80;99.90;;;;;;4985720;28;20054;-78
2021/01/23 02:07:16;;;;;;;46.60;23.45;;;0.80;99.90;;;;;;4973926;28;20057;-78
2021/01/23 02:10:06;;;;;;;45.20;22.17;;;0.70;99.90;;;;;;4984950;28;20114;-78
2021/01/23 02:13:01;;;;;;;40.45;22.00;;;0.80;99.90;;;;;;4981566;28;20050;-78
2021/01/23 02:15:32;;;;;;;45.60;22.67;;;0.70;99.90;;;;;;5000030;28;20125;-78
2021/01/23 02:18:05;;;;;;;43.35;21.55;;;0.70;99.90;;;;;;4982301;28;20050;-78
2021/01/23 02:21:08;;;;;;;43.05;21.77;;;0.70;99.90;;;;;;4982612;28;20050;-78
2021/01/23 02:23:38;;;;;;;51.88;22.55;;;0.60;99.90;;;;;;4982967;28;20069;-78
2021/01/23 02:26:29;;;;;;;47.78;24.45;;;0.60;99.90;;;;;;4982343;28;20061;-78
2021/01/23 02:29:16;;;;;;;53.28;24.08;;;0.60;99.90;;;;;;4974255;28;20133;-78
2021/01/23 02:31:47;;;;;;;52.15;24.35;;;0.60;99.90;;;;;;4981106;28;20586;-78
2021/01/23 02:34:18;;;;;;;44.35;22.42;;;0.60;99.90;;;;;;4983502;28;20046;-78
2021/01/23 02:36:45;;;;;;;53.38;24.08;;;0.60;99.90;;;;;;4980230;28;20100;-78
2021/01/23 02:39:13;;;;;;;52.65;23.60;;;0.60;99.90;;;;;;4974383;28;20050;-77
2021/01/23 02:41:40;;;;;;;48.92;26.33;;;0.60;99.90;;;;;;4975132;28;20074;-78
2021/01/23 02:44:07;;;;;;;48.20;26.48;;;0.60;99.90;;;;;;4979012;28;20475;-77
2021/01/23 02:46:33;;;;;;;42.95;24.05;;;0.60;99.90;;;;;;4983120;28;20054;-78
2021/01/23 02:48:59;;;;;;;56.95;23.73;;;0.60;99.90;;;;;;4980109;28;20406;-78
2021/01/23 02:51:53;;;;;;;52.13;24.48;;;0.70;99.90;;;;;;4983233;28;20557;-78
2021/01/23 02:54:43;;;;;;;54.97;24.13;;;0.70;99.90;;;;;;5000869;28;20051;-78
2021/01/23 02:57:11;;;;;;;49.20;24.65;;;0.80;99.90;;;;;;4971263;28;20062;-78
2021/01/23 02:59:40;;;;;;;52.65;25.13;;;0.80;99.90;;;;;;4983684;28;20628;-77
2021/01/23 03:02:11;;;;;;;45.75;22.30;;;0.90;99.90;;;;;;4979423;28;20058;-78
2021/01/23 03:04:39;;;;;;;45.88;23.65;;;1.00;99.90;;;;;;4980658;28;20046;-78
2021/01/23 03:07:06;;;;;;;47.17;24.60;;;1.00;99.90;;;;;;4980318;28;20056;-78
2021/01/23 03:09:34;;;;;;;45.50;22.30;;;1.10;99.90;;;;;;4981928;28;20061;-78
2021/01/23 03:12:00;;;;;;;43.20;21.05;;;1.20;99.90;;;;;;4977382;28;20050;-77
2021/01/23 03:14:27;;;;;;;42.85;21.98;;;1.20;99.90;;;;;;4974307;28;20114;-78
2021/01/23 03:16:56;;;;;;;39.28;19.95;;;1.20;99.90;;;;;;4972672;28;20064;-78
2021/01/23 03:19:23;;;;;;;35.10;20.00;;;1.30;99.90;;;;;;4976473;28;20053;-78
2021/01/23 03:21:51;;;;;;;42.63;20.08;;;1.40;99.90;;;;;;4973000;28;20097;-77
2021/01/23 03:24:21;;;;;;;37.33;18.85;;;1.40;99.90;;;;;;4966377;28;20048;-78
2021/01/23 03:26:48;;;;;;;33.72;18.75;;;1.50;99.90;;;;;;4981628;28;20053;-78
2021/01/23 03:29:16;;;;;;;37.35;19.95;;;1.60;99.90;;;;;;4978468;28;20055;-78
2021/01/23 03:31:43;;;;;;;33.47;17.45;;;1.60;99.90;;;;;;4982779;28;20075;-78
2021/01/23 03:34:09;;;;;;;33.85;18.33;;;1.70;99.90;;;;;;4980463;28;20161;-78
2021/01/23 03:36:36;;;;;;;33.30;17.13;;;1.70;99.90;;;;;;4980528;28;20076;-78
2021/01/23 03:39:04;;;;;;;41.22;17.02;;;1.80;99.90;;;;;;4978969;28;20125;-78
2021/01/23 03:41:31;;;;;;;30.25;16.23;;;1.80;99.90;;;;;;4983960;28;20050;-78
2021/01/23 03:43:57;;;;;;;30.90;16.58;;;1.90;99.90;;;;;;4981345;28;20106;-78
2021/01/23 03:46:23;;;;;;;31.08;16.13;;;1.90;99.90;;;;;;4974995;28;20057;-78
2021/01/23 03:48:50;;;;;;;33.83;16.90;;;1.90;99.90;;;;;;4982522;28;20046;-78
2021/01/23 03:51:16;;;;;;;32.60;17.00;;;2.00;99.90;;;;;;4982808;28;20182;-78
2021/01/23 03:53:42;;;;;;;35.35;17.52;;;2.00;99.90;;;;;;4982390;28;20054;-78
2021/01/23 03:56:08;;;;;;;31.85;16.60;;;2.00;99.90;;;;;;4973878;28;20050;-78
2021/01/23 03:58:35;;;;;;;33.35;17.88;;;2.00;99.90;;;;;;4978804;28;20413;-78
2021/01/23 04:01:03;;;;;;;33.90;18.52;;;2.10;99.90;;;;;;4985270;28;20573;-80
2021/01/23 04:03:29;;;;;;;35.83;18.38;;;2.10;99.90;;;;;;4985642;28;20077;-79
2021/01/23 04:05:56;;;;;;;40.97;18.52;;;2.10;99.90;;;;;;4986545;28;20078;-78
2021/01/23 04:08:23;;;;;;;36.00;18.10;;;2.20;99.90;;;;;;4981820;28;20574;-78
2021/01/23 04:10:50;;;;;;;43.85;18.00;;;2.20;99.90;;;;;;4979745;28;20110;-79
2021/01/23 04:13:16;;;;;;;37.33;18.58;;;2.20;99.90;;;;;;4976532;28;20054;-78
2021/01/23 04:15:43;;;;;;;33.10;17.70;;;2.30;99.90;;;;;;4982417;28;20054;-79
2021/01/23 04:18:09;;;;;;;40.25;19.00;;;2.20;99.90;;;;;;4974637;28;20047;-80
2021/01/23 04:20:35;;;;;;;35.63;17.52;;;2.20;99.90;;;;;;4982196;28;20058;-79
2021/01/23 04:23:02;;;;;;;36.55;18.55;;;2.20;99.90;;;;;;4980613;28;20056;-78
2021/01/23 04:25:28;;;;;;;35.22;18.45;;;2.20;99.90;;;;;;4980026;28;20058;-78
2021/01/23 04:27:54;;;;;;;36.25;17.83;;;2.30;99.90;;;;;;4977077;28;20096;-79
2021/01/23 04:30:22;;;;;;;34.20;19.15;;;2.20;99.90;;;;;;4978372;28;20062;-78
2021/01/23 04:32:48;;;;;;;34.13;17.58;;;2.30;99.90;;;;;;4975381;28;20158;-78
2021/01/23 04:35:15;;;;;;;34.47;18.75;;;2.30;99.90;;;;;;4978683;28;20061;-77
2021/01/23 04:37:41;;;;;;;38.38;18.83;;;2.30;99.90;;;;;;4977332;28;20054;-77
2021/01/23 04:40:09;;;;;;;36.88;18.42;;;2.40;99.90;;;;;;4980285;28;20061;-78
2021/01/23 04:42:39;;;;;;;34.47;18.63;;;2.30;99.90;;;;;;4976277;28;20057;-78
2021/01/23 04:45:07;;;;;;;33.85;17.98;;;2.40;99.90;;;;;;4986499;28;20056;-78
2021/01/23 04:47:33;;;;;;;40.08;19.88;;;2.40;99.90;;;;;;4982431;28;21524;-79
2021/01/23 04:49:59;;;;;;;37.63;17.67;;;2.50;99.90;;;;;;4981510;28;20148;-78
2021/01/23 04:52:27;;;;;;;34.42;17.50;;;2.50;99.90;;;;;;4981117;28;20074;-78
2021/01/23 04:54:54;;;;;;;33.60;17.15;;;2.50;99.90;;;;;;4987430;28;20054;-78
2021/01/23 04:57:20;;;;;;;34.60;17.35;;;2.50;99.90;;;;;;4982992;28;20054;-78
2021/01/23 04:59:46;;;;;;;34.72;18.10;;;2.60;99.90;;;;;;4985345;28;20146;-78
2021/01/23 05:02:22;;;;;;;39.63;17.27;;;2.50;99.90;;;;;;4984009;28;20068;-78
2021/01/23 05:05:01;;;;;;;34.10;17.65;;;2.60;99.90;;;;;;4984208;28;20178;-77
2021/01/23 05:07:35;;;;;;;53.15;20.15;;;2.60;99.90;;;;;;4983442;28;20054;-78
2021/01/23 05:10:23;;;;;;;33.40;17.15;;;2.60;99.90;;;;;;4984061;28;20104;-77
2021/01/23 05:12:50;;;;;;;25.65;15.25;;;2.70;99.90;;;;;;4978009;28;20504;-77
2021/01/23 05:15:22;;;;;;;31.55;16.35;;;2.70;99.90;;;;;;4974751;28;20796;-78
2021/01/23 05:18:08;;;;;;;24.85;15.55;;;2.70;99.90;;;;;;4983963;28;20054;-78
2021/01/23 05:20:54;;;;;;;32.05;17.35;;;2.70;99.90;;;;;;4985491;28;20457;-77
2021/01/23 05:23:26;;;;;;;30.65;16.60;;;2.70;99.90;;;;;;4982530;28;20125;-78
2021/01/23 05:26:00;;;;;;;36.03;17.90;;;2.70;99.90;;;;;;4982023;28;20070;-77
2021/01/23 05:28:32;;;;;;;26.20;15.43;;;2.80;99.90;;;;;;4982190;28;20417;-77
2021/01/23 05:31:00;;;;;;;32.10;16.65;;;2.80;99.90;;;;;;4977823;28;20070;-77
2021/01/23 05:33:31;;;;;;;31.40;16.48;;;2.80;99.90;;;;;;4998180;28;20060;-78
2021/01/23 05:36:07;;;;;;;31.10;18.35;;;2.80;99.90;;;;;;4984947;28;20140;-78
2021/01/23 05:38:36;;;;;;;30.50;16.20;;;2.80;99.90;;;;;;4982586;28;20132;-78
2021/01/23 05:41:06;;;;;;;33.00;17.65;;;2.80;99.90;;;;;;4978966;28;20557;-78
2021/01/23 05:43:51;;;;;;;30.35;16.60;;;2.80;99.90;;;;;;4978978;28;20095;-78
2021/01/23 05:46:31;;;;;;;30.02;16.00;;;2.80;99.90;;;;;;4977216;28;20057;-78
2021/01/23 05:48:58;;;;;;;31.88;17.65;;;2.80;99.90;;;;;;4982979;28;20141;-78
2021/01/23 05:51:24;;;;;;;33.25;17.58;;;2.80;99.90;;;;;;4989990;28;20170;-78
2021/01/23 05:53:51;;;;;;;35.47;18.30;;;2.70;99.90;;;;;;4996007;28;20042;-77
2021/01/23 05:56:17;;;;;;;32.05;17.70;;;2.80;99.90;;;;;;4986653;28;20064;-78
2021/01/23 05:58:45;;;;;;;31.33;16.65;;;2.70;99.90;;;;;;4986805;28;20516;-77
2021/01/23 06:01:22;;;;;;;39.03;18.35;;;2.70;99.90;;;;;;4987334;28;20625;-78
2021/01/23 06:03:59;;;;;;;32.58;18.00;;;2.70;99.90;;;;;;4989545;28;20054;-78
2021/01/23 06:06:43;;;;;;;37.33;18.05;;;2.80;99.90;;;;;;4984042;28;20046;-78
2021/01/23 06:09:47;;;;;;;28.38;15.68;;;2.80;99.90;;;;;;5000802;28;20056;-78
2021/01/23 06:12:31;;;;;;;31.27;17.53;;;2.90;99.90;;;;;;4980327;28;20056;-78
2021/01/23 06:14:58;;;;;;;29.58;15.95;;;2.90;99.90;;;;;;4987669;28;20299;-78
2021/01/23 06:17:46;;;;;;;33.15;14.32;;;3.00;99.90;;;;;;4983069;28;20121;-78
2021/01/23 06:20:40;;;;;;;25.55;15.10;;;3.00;99.90;;;;;;4987902;28;20627;-78
2021/01/23 06:23:20;;;;;;;19.65;12.20;;;3.00;99.90;;;;;;4981582;28;20141;-78
2021/01/23 06:25:49;;;;;;;27.08;13.27;;;3.00;99.90;;;;;;4976912;28;20466;-78
2021/01/23 06:28:16;;;;;;;28.88;15.30;;;3.00;99.90;;;;;;4983566;28;20046;-77
2021/01/23 06:30:43;;;;;;;24.30;12.60;;;3.10;99.90;;;;;;4979195;28;20129;-78
2021/01/23 06:33:24;;;;;;;23.40;12.73;;;3.10;99.90;;;;;;4981260;28;20061;-78
2021/01/23 06:36:08;;;;;;;24.98;14.68;;;3.10;99.90;;;;;;4980945;28;20050;-78
2021/01/23 06:38:34;;;;;;;24.70;12.75;;;3.10;99.90;;;;;;4976977;28;20069;-78
2021/01/23 06:41:32;;;;;;;24.83;12.45;;;3.10;99.90;;;;;;4979363;28;20069;-78
2021/01/23 06:44:08;;;;;;;28.50;13.00;;;3.20;99.90;;;;;;4980721;28;20508;-78
2021/01/23 06:46:40;;;;;;;34.58;14.38;;;3.20;99.90;;;;;;4985238;28;20058;-78
2021/01/23 06:49:11;;;;;;;26.50;13.85;;;3.20;99.90;;;;;;4982765;28;20053;-78
2021/01/23 06:51:41;;;;;;;26.00;14.13;;;3.20;99.90;;;;;;4981766;28;20090;-78
2021/01/23 06:54:12;;;;;;;21.38;11.80;;;3.30;99.90;;;;;;4990837;28;20458;-78
2021/01/23 06:56:49;;;;;;;27.48;13.15;;;3.30;99.90;;;;;;4974334;28;22791;-78
2021/01/23 06:59:31;;;;;;;26.02;13.73;;;3.30;99.90;;;;;;4970601;28;20512;-79
2021/01/23 07:02:14;;;;;;;26.15;13.70;;;3.30;99.90;;;;;;4973364;28;20108;-78
2021/01/23 07:04:49;;;;;;;27.65;14.60;;;3.30;99.90;;;;;;4981082;28;20038;-77
2021/01/23 07:07:15;;;;;;;;;;;3.30;99.90;;;;;;4977095;28;21062;-78
2021/01/23 07:09:55;;;;;;;22.08;11.73;;;3.30;99.90;;;;;;4980617;28;19929;-78
2021/01/23 07:12:49;;;;;;;19.90;12.60;;;3.30;99.90;;;;;;4978456;28;20082;-78
2021/01/23 07:15:35;;;;;;;28.60;14.13;;;3.40;99.90;;;;;;4980893;28;20121;-79
2021/01/23 07:18:14;;;;;;;20.88;11.88;;;3.40;99.90;;;;;;4975776;28;20061;-78
2021/01/23 07:20:41;;;;;;;27.00;11.95;;;3.40;99.90;;;;;;4985296;28;20069;-78
2021/01/23 07:23:07;;;;;;;22.67;11.40;;;3.40;99.90;;;;;;4977798;28;20076;-79
2021/01/23 07:25:34;;;;;;;24.60;12.18;;;3.40;99.90;;;;;;4997543;28;20046;-78
2021/01/23 07:28:00;;;;;;;24.95;12.02;;;3.40;99.90;;;;;;4974045;28;20079;-78
2021/01/23 07:30:29;;;;;;;19.02;10.23;;;3.40;99.90;;;;;;4973691;28;20111;-78
2021/01/23 07:32:55;;;;;;;21.00;10.80;;;3.50;99.90;;;;;;4979684;28;20065;-78
2021/01/23 07:35:22;;;;;;;18.73;10.73;;;3.50;99.90;;;;;;4975687;28;20856;-78
2021/01/23 07:37:50;;;;;;;18.60;10.13;;;3.50;99.90;;;;;;4977775;28;20058;-79
2021/01/23 07:40:26;;;;;;;23.92;10.60;;;3.50;99.90;;;;;;4983345;28;20487;-78
2021/01/23 07:42:56;;;;;;;23.92;11.07;;;3.50;99.90;;;;;;4983383;28;20057;-78
2021/01/23 07:45:22;;;;;;;20.05;10.30;;;3.50;99.90;;;;;;4961526;28;20060;-79
2021/01/23 07:47:59;;;;;;;22.02;11.75;;;3.50;99.90;;;;;;4974029;28;20077;-77
2021/01/23 07:50:27;;;;;;;18.13;10.70;;;3.50;99.90;;;;;;4973511;28;20559;-78
2021/01/23 07:52:53;;;;;;;21.77;10.15;;;3.50;99.90;;;;;;4976173;28;20061;-77
2021/01/23 07:55:19;;;;;;;26.02;12.02;;;3.60;99.90;;;;;;4972924;28;20054;-79
2021/01/23 07:58:08;;;;;;;24.27;10.55;;;3.60;99.90;;;;;;4976683;28;20124;-77
2021/01/23 08:00:35;;;;;;;20.30;11.35;;;3.60;99.90;;;;;;4977791;28;20498;-77
2021/01/23 08:03:06;;;;;;;20.27;11.45;;;3.60;99.90;;;;;;4975875;28;20078;-77
2021/01/23 08:05:57;;;;;;;24.42;11.43;;;3.60;99.90;;;;;;4975252;28;20145;-77
2021/01/23 08:08:31;;;;;;;19.73;10.63;;;3.60;99.90;;;;;;4975551;28;20054;-77
2021/01/23 08:10:58;;;;;;;17.77;10.38;;;3.70;99.90;;;;;;4973763;28;20134;-78
2021/01/23 08:13:27;;;;;;;21.77;10.65;;;3.70;99.90;;;;;;4978623;28;20054;-77
2021/01/23 08:16:11;;;;;;;19.75;10.65;;;3.70;99.90;;;;;;4979267;28;20054;-77
2021/01/23 08:18:40;;;;;;;20.33;10.15;;;3.80;99.90;;;;;;4989404;28;20570;-77
2021/01/23 08:21:20;;;;;;;19.70;10.70;;;3.80;99.90;;;;;;4977462;28;20163;-77
2021/01/23 08:23:47;;;;;;;22.80;12.27;;;3.80;99.90;;;;;;4987750;28;20779;-77
2021/01/23 08:26:14;;;;;;;20.20;11.07;;;3.80;99.90;;;;;;4973125;28;20061;-77
2021/01/23 08:28:43;;;;;;;21.33;10.48;;;3.90;99.90;;;;;;4975809;28;20109;-77
2021/01/23 08:31:22;;;;;;;26.75;11.93;;;3.80;99.90;;;;;;4976391;28;20050;-77
2021/01/23 08:33:56;;;;;;;23.35;11.02;;;3.90;99.90;;;;;;4979223;28;20425;-77
2021/01/23 08:36:24;;;;;;;21.58;11.30;;;3.90;99.90;;;;;;4996141;28;20497;-78
2021/01/23 08:39:02;;;;;;;19.20;10.50;;;3.90;99.90;;;;;;4980406;28;20082;-78
2021/01/23 08:41:28;;;;;;;23.92;11.93;;;4.00;99.90;;;;;;4996203;28;20054;-78
2021/01/23 08:43:55;;;;;;;20.92;11.13;;;4.00;99.90;;;;;;4982383;28;20541;-78
2021/01/23 08:46:24;;;;;;;19.17;10.45;;;4.00;99.90;;;;;;4981711;28;20049;-77
2021/01/23 08:48:51;;;;;;;21.98;11.02;;;4.00;99.90;;;;;;4978689;28;20057;-78
2021/01/23 08:51:18;;;;;;;20.42;11.50;;;4.00;99.90;;;;;;4979789;28;20050;-78
2021/01/23 08:53:45;;;;;;;23.17;11.05;;;4.00;99.90;;;;;;4979114;28;20134;-77
2021/01/23 08:56:12;;;;;;;23.30;12.32;;;4.00;99.90;;;;;;4980612;28;20065;-78
2021/01/23 08:58:39;;;;;;;20.08;10.98;;;4.00;99.90;;;;;;4985281;28;20362;-78
2021/01/23 09:01:05;;;;;;;22.38;11.40;;;3.90;99.90;;;;;;4973752;28;20792;-78
2021/01/23 09:03:34;;;;;;;20.60;10.95;;;3.90;99.90;;;;;;4983895;28;20080;-78
2021/01/23 09:06:01;;;;;;;24.75;12.98;;;3.90;99.90;;;;;;4963734;28;20117;-78
2021/01/23 09:08:27;;;;;;;23.38;12.18;;;3.90;99.90;;;;;;4970389;28;20060;-77
2021/01/23 09:10:53;;;;;;;25.52;12.95;;;3.90;99.90;;;;;;4969528;28;20505;-77
2021/01/23 09:13:22;;;;;;;23.98;12.75;;;3.90;99.90;;;;;;4982301;28;20069;-77
2021/01/23 09:15:49;;;;;;;23.55;11.65;;;3.90;99.90;;;;;;4972316;28;20684;-79
2021/01/23 09:18:16;;;;;;;20.38;12.23;;;3.90;99.90;;;;;;4986380;28;20050;-80
2021/01/23 09:20:42;;;;;;;22.45;12.13;;;3.80;99.90;;;;;;4983643;28;20112;-79
2021/01/23 09:23:08;;;;;;;27.15;13.18;;;3.90;99.90;;;;;;4984845;28;20050;-79
2021/01/23 09:25:34;;;;;;;20.75;11.35;;;3.80;99.90;;;;;;4984308;28;20050;-77
2021/01/23 09:28:00;;;;;;;24.48;12.35;;;3.80;99.90;;;;;;4981903;28;20133;-78
2021/01/23 09:30:27;;;;;;;19.58;11.98;;;3.80;99.90;;;;;;4984456;28;20053;-80
2021/01/23 09:32:53;;;;;;;26.58;11.65;;;3.80;99.90;;;;;;4986981;28;20061;-80
2021/01/23 09:35:19;;;;;;;23.35;12.18;;;3.80;99.90;;;;;;4982769;28;20421;-79
2021/01/23 09:37:45;;;;;;;23.40;12.00;;;3.80;99.90;;;;;;4983296;28;20054;-79
2021/01/23 09:40:12;;;;;;;25.13;12.68;;;3.80;99.90;;;;;;4981100;28;20548;-79
2021/01/23 09:42:39;;;;;;;25.27;12.85;;;3.90;99.90;;;;;;4981179;28;20770;-76
2021/01/23 09:45:06;;;;;;;28.23;12.43;;;4.00;99.90;;;;;;4977063;28;20142;-76
2021/01/23 09:47:32;;;;;;;20.48;12.70;;;4.00;99.90;;;;;;4974751;28;20085;-78
2021/01/23 09:50:01;;;;;;;17.77;11.65;;;4.10;99.90;;;;;;4980074;28;20517;-77
2021/01/23 09:52:28;;;;;;;22.08;11.27;;;4.20;99.90;;;;;;4967348;28;82728;-77
2021/01/23 09:54:55;;;;;;;23.75;12.68;;;4.40;99.90;;;;;;4978593;28;20070;-77
2021/01/23 09:57:21;;;;;;;20.83;10.30;;;4.70;99.90;;;;;;4975121;28;20058;-77
2021/01/23 09:59:47;;;;;;;18.10;11.18;;;4.90;99.90;;;;;;4983015;28;20049;-77
2021/01/23 10:02:13;;;;;;;16.90;10.52;;;5.00;99.90;;;;;;4978971;28;20054;-77
2021/01/23 10:04:43;;;;;;;17.05;11.48;;;5.20;99.90;;;;;;4979328;28;20054;-77
2021/01/23 10:07:09;;;;;;;22.33;10.65;;;5.20;99.90;;;;;;4980209;28;20062;-77
2021/01/23 10:09:35;;;;;;;19.40;10.63;;;5.20;99.90;;;;;;4976311;28;20058;-78
2021/01/23 10:12:03;;;;;;;21.85;11.23;;;5.10;99.90;;;;;;4980632;28;20078;-77
2021/01/23 10:14:29;;;;;;;13.13;9.23;;;5.00;99.90;;;;;;4979056;28;20128;-77
2021/01/23 10:16:55;;;;;;;24.50;10.77;;;5.00;99.90;;;;;;4975404;28;20049;-77
2021/01/23 10:19:22;;;;;;;16.77;9.68;;;5.00;99.90;;;;;;4973172;28;20065;-77
2021/01/23 10:21:48;;;;;;;18.63;11.07;;;5.00;99.90;;;;;;4976746;28;20470;-78
2021/01/23 10:24:14;;;;;;;19.02;10.48;;;5.00;99.90;;;;;;4979047;28;20050;-78
2021/01/23 10:26:40;;;;;;;15.20;9.98;;;5.00;99.90;;;;;;4982366;28;20142;-78
2021/01/23 10:29:06;;;;;;;17.33;11.13;;;4.90;99.90;;;;;;4981457;28;20057;-78
2021/01/23 10:31:33;;;;;;;16.05;9.70;;;5.00;99.90;;;;;;4978892;28;20060;-77
2021/01/23 10:33:59;;;;;;;19.20;10.30;;;5.10;99.90;;;;;;4981107;28;20061;-78
2021/01/23 10:36:25;;;;;;;21.33;12.18;;;5.10;99.90;;;;;;4982506;28;20105;-77
2021/01/23 10:38:51;;;;;;;15.15;10.55;;;5.20;99.90;;;;;;4980852;28;20050;-78
2021/01/23 10:41:18;;;;;;;14.35;9.98;;;5.20;99.90;;;;;;4980203;28;20161;-78
2021/01/23 10:43:44;;;;;;;18.00;10.05;;;5.30;99.90;;;;;;4983629;28;20061;-78
2021/01/23 10:46:11;;;;;;;14.90;9.60;;;5.30;99.90;;;;;;4983165;28;20077;-78
2021/01/23 10:48:37;;;;;;;14.30;9.95;;;5.20;99.90;;;;;;4980744;28;20417;-77
2021/01/23 10:51:05;;;;;;;14.68;10.70;;;5.20;99.90;;;;;;4983342;28;20425;-77
2021/01/23 10:53:33;;;;;;;15.80;10.10;;;5.20;99.90;;;;;;4979047;28;20060;-77
2021/01/23 10:55:59;;;;;;;21.80;10.52;;;5.30;99.90;;;;;;4983022;28;20062;-78
2021/01/23 10:58:25;;;;;;;14.52;8.90;;;5.40;99.90;;;;;;4979291;28;20065;-78
2021/01/23 11:00:52;;;;;;;12.02;8.25;;;5.30;99.90;;;;;;4980763;28;20082;-78
2021/01/23 11:03:18;;;;;;;14.00;8.85;;;5.20;99.90;;;;;;4984037;28;20046;-78
2021/01/23 11:05:45;;;;;;;15.75;9.02;;;5.10;99.90;;;;;;4976961;28;20047;-77
2021/01/23 11:08:11;;;;;;;15.40;9.13;;;5.10;99.90;;;;;;4947189;28;20540;-78
2021/01/23 11:10:38;;;;;;;15.20;9.65;;;5.00;99.90;;;;;;4976628;28;20467;-77
2021/01/23 11:13:05;;;;;;;17.10;9.27;;;4.90;99.90;;;;;;4976775;28;20074;-78
2021/01/23 11:15:32;;;;;;;12.60;8.65;;;4.80;99.90;;;;;;4982989;28;20120;-78
2021/01/23 11:17:58;;;;;;;12.70;8.73;;;4.80;99.90;;;;;;4979865;28;20054;-77
2021/01/23 11:20:26;;;;;;;13.48;8.93;;;4.80;99.90;;;;;;4975944;28;20091;-77
2021/01/23 11:22:52;;;;;;;12.80;8.60;;;4.80;99.90;;;;;;4971704;28;20119;-78
2021/01/23 11:25:18;;;;;;;14.25;8.13;;;4.90;99.90;;;;;;4982478;28;20054;-79
2021/01/23 11:27:44;;;;;;;13.85;7.65;;;5.10;99.90;;;;;;4973910;28;20073;-79
2021/01/23 11:30:12;;;;;;;11.82;8.30;;;5.40;99.90;;;;;;4979644;28;20058;-78
2021/01/23 11:32:39;;;;;;;18.90;9.10;;;5.70;99.90;;;;;;4976951;28;20050;-78
2021/01/23 11:35:06;;;;;;;13.80;7.40;;;6.10;99.90;;;;;;4978837;28;20103;-77
2021/01/23 11:37:33;;;;;;;9.25;7.65;;;6.40;99.90;;;;;;4985090;28;20494;-77
2021/01/23 11:40:00;;;;;;;11.75;7.65;;;6.60;99.90;;;;;;4966168;28;20053;-78
2021/01/23 11:42:26;;;;;;;13.90;7.55;;;6.90;99.90;;;;;;4976366;28;20540;-77
2021/01/23 11:44:53;;;;;;;8.90;6.75;;;7.10;99.90;;;;;;4969653;28;20046;-77
2021/01/23 11:47:19;;;;;;;11.05;7.00;;;7.10;99.90;;;;;;4978399;28;20181;-78
2021/01/23 11:49:46;;;;;;;9.95;6.60;;;7.10;99.90;;;;;;4994884;28;20387;-78
2021/01/23 11:52:12;;;;;;;18.63;8.40;;;7.20;99.90;;;;;;4987802;28;20413;-78
2021/01/23 11:54:39;;;;;;;10.75;7.10;;;7.20;99.90;;;;;;4983922;28;20052;-78
2021/01/23 11:57:08;;;;;;;9.73;6.50;;;7.20;99.90;;;;;;4982444;28;20064;-77
2021/01/23 11:59:37;;;;;;;14.18;7.10;;;7.10;99.90;;;;;;4980559;28;20078;-78
2021/01/23 12:02:03;;;;;;;14.82;7.05;;;6.90;99.90;;;;;;4985305;28;20129;-78
2021/01/23 12:04:31;;;;;;;13.88;7.90;;;6.70;99.90;;;;;;4980579;28;20062;-78
2021/01/23 12:07:03;;;;;;;12.10;6.63;;;6.60;99.90;;;;;;4965503;28;20050;-78
2021/01/23 12:09:30;;;;;;;9.55;6.53;;;6.40;99.90;;;;;;4992225;28;20413;-78
2021/01/23 12:11:56;;;;;;;11.52;6.35;;;6.30;99.90;;;;;;4976620;28;20042;-77
2021/01/23 12:14:22;;;;;;;8.27;6.30;;;6.20;99.90;;;;;;4985483;28;20053;-78
2021/01/23 12:16:49;;;;;;;16.38;8.05;;;6.10;99.90;;;;;;4982492;28;20046;-78
2021/01/23 12:19:15;;;;;;;10.88;7.28;;;6.00;99.90;;;;;;4975897;28;20544;-78
2021/01/23 12:21:42;;;;;;;15.82;6.95;;;6.00;99.90;;;;;;4974339;28;20046;-76
2021/01/23 12:24:08;;;;;;;10.73;6.65;;;6.00;99.90;;;;;;4970131;28;20050;-77
2021/01/23 12:26:36;;;;;;;9.60;6.38;;;6.00;99.90;;;;;;4979200;28;20140;-77
2021/01/23 12:29:03;;;;;;;18.80;8.27;;;6.00;99.90;;;;;;4975717;28;21118;-77
2021/01/23 12:31:31;;;;;;;9.02;6.43;;;6.00;99.90;;;;;;4976460;28;20404;-77
2021/01/23 12:33:58;;;;;;;9.18;6.25;;;6.10;99.90;;;;;;4973595;28;20054;-77
2021/01/23 12:36:24;;;;;;;11.50;5.60;;;6.10;99.90;;;;;;4985958;28;20061;-78
2021/01/23 12:38:50;;;;;;;7.88;5.32;;;6.30;99.90;;;;;;4977943;28;20054;-77
2021/01/23 12:41:17;;;;;;;8.40;6.13;;;6.50;99.90;;;;;;4975339;28;20065;-77
2021/01/23 12:43:43;;;;;;;6.70;5.57;;;6.60;99.90;;;;;;4974467;28;20066;-77
2021/01/23 12:46:09;;;;;;;8.02;5.05;;;6.60;99.90;;;;;;4977291;28;20046;-77
2021/01/23 12:48:36;;;;;;;8.13;5.57;;;6.60;99.90;;;;;;4982049;28;20050;-78
2021/01/23 12:51:03;;;;;;;11.55;5.70;;;6.50;99.90;;;;;;4981277;28;20152;-78
2021/01/23 12:53:29;;;;;;;8.45;5.30;;;6.60;99.90;;;;;;4976819;28;20508;-77